Time;durP1;ratioP1;P1;durP2;ratioP2;P2;SDS_P1;SDS_P2;PMS_P1;PMS_P2;Temp;Humidity;BMP_temperature;BMP_pressure;BME280_temperature;BME280_humidity;BME280_pressure;Samples;Min_cycle;Max_cycle;Signal;HPM_P1;HPM_P2
2023/06/14 00:07:01;;;;;;;;;;;;;;;12.24;100.00;97119.87;18572846;32;19956;-51
2023/06/14 00:17:07;;;;;;;;;;;;;;;12.08;100.00;97120.09;18572053;32;19976;-52
2023/06/14 00:27:09;;;;;;;;;;;;;;;11.92;100.00;97126.81;18571639;32;19983;-53
2023/06/14 00:37:13;;;;;;;;;;;;;;;11.74;100.00;97128.41;18570644;31;20272;-51
2023/06/14 00:47:17;;;;;;;;;;;;;;;11.57;100.00;97108.03;18570525;32;20005;-52
2023/06/14 00:57:20;;;;;;;;;;;;;;;11.38;100.00;97120.72;18569937;32;19967;-50
2023/06/14 01:07:30;;;;;;;;;;;;;;;11.20;100.00;97123.09;18569032;32;19972;-52
2023/06/14 01:17:33;;;;;;;;;;;;;;;11.03;100.00;97126.22;18568799;32;19952;-52
2023/06/14 01:27:37;;;;;;;;;;;;;;;10.87;100.00;97131.00;18567797;31;20306;-49
2023/06/14 01:37:40;;;;;;;;;;;;;;;10.67;100.00;97129.28;18567093;31;19988;-50
2023/06/14 01:47:43;;;;;;;;;;;;;;;10.50;100.00;97125.09;18566580;32;19960;-51
2023/06/14 01:57:46;;;;;;;;;;;;;;;10.32;100.00;97131.16;18566275;32;19993;-54
2023/06/14 02:07:50;;;;;;;;;;;;;;;10.14;100.00;97122.63;18565357;32;20367;-53
2023/06/14 02:17:53;;;;;;;;;;;;;;;9.98;100.00;97129.22;18563932;31;19965;-53
2023/06/14 02:27:56;;;;;;;;;;;;;;;9.88;100.00;97129.25;18549654;32;19980;-53
2023/06/14 02:37:59;;;;;;;;;;;;;;;9.76;100.00;97130.41;18563235;31;19993;-54
2023/06/14 02:48:01;;;;;;;;;;;;;;;9.62;100.00;97129.38;18563089;32;19968;-54
2023/06/14 02:58:04;;;;;;;;;;;;;;;9.50;100.00;97135.91;18562682;32;20000;-53
2023/06/14 03:08:07;;;;;;;;;;;;;;;9.43;100.00;97138.09;18547719;32;20272;-53
2023/06/14 03:18:09;;;;;;;;;;;;;;;9.19;100.00;97145.19;18547706;32;19985;-54
2023/06/14 03:28:12;;;;;;;;;;;;;;;9.07;100.00;97149.00;18560951;32;20343;-51
2023/06/14 03:38:15;;;;;;;;;;;;;;;9.05;100.00;97161.94;18560769;32;19984;-54
2023/06/14 03:48:17;;;;;;;;;;;;;;;8.92;100.00;97176.81;18560703;32;20016;-55
2023/06/14 03:58:20;;;;;;;;;;;;;;;8.90;100.00;97176.25;18560367;32;19956;-54
2023/06/14 04:08:24;;;;;;;;;;;;;;;8.89;100.00;97184.62;18560196;31;20016;-54
2023/06/14 04:18:27;;;;;;;;;;;;;;;8.90;100.00;97197.03;18559609;32;19949;-54
2023/06/14 04:28:30;;;;;;;;;;;;;;;9.03;100.00;97203.75;18545477;32;19963;-52
2023/06/14 04:38:34;;;;;;;;;;;;;;;9.26;100.00;97211.28;18559452;31;19989;-52
2023/06/14 04:48:40;;;;;;;;;;;;;;;9.54;100.00;97221.72;18570248;32;19949;-54
2023/06/14 04:58:44;;;;;;;;;;;;;;;9.82;100.00;97231.88;18569970;32;19968;-55
2023/06/14 05:08:47;;;;;;;;;;;;;;;10.14;100.00;97241.50;18569085;32;20277;-52
2023/06/14 05:18:50;;;;;;;;;;;;;;;10.56;100.00;97254.81;18568816;32;19961;-51
2023/06/14 05:28:53;;;;;;;;;;;;;;;10.99;100.00;97260.44;18567900;32;19965;-54
2023/06/14 05:38:57;;;;;;;;;;;;;;;11.42;100.00;97255.19;18540099;31;20340;-54
2023/06/14 05:49:00;;;;;;;;;;;;;;;11.92;100.00;97257.66;18539549;32;19957;-54
2023/06/14 05:59:02;;;;;;;;;;;;;;;12.44;100.00;97260.53;18565697;31;19977;-55
2023/06/14 06:09:06;;;;;;;;;;;;;;;12.98;100.00;97268.47;18565385;32;20302;-53
2023/06/14 06:19:10;;;;;;;;;;;;;;;13.61;100.00;97275.31;18564658;32;19949;-54
2023/06/14 06:29:15;;;;;;;;;;;;;;;14.39;100.00;97286.31;18564336;32;20297;-53
2023/06/14 06:39:18;;;;;;;;;;;;;;;15.20;100.00;97309.31;18536377;31;19960;-56
2023/06/14 06:49:21;;;;;;;;;;;;;;;15.94;99.81;97318.13;18563483;32;19957;-55
2023/06/14 06:59:25;;;;;;;;;;;;;;;16.63;86.31;97326.84;18535460;32;20283;-55
2023/06/14 07:09:29;;;;;;;;;;;;;;;17.26;82.10;97341.84;18547310;32;20374;-55
2023/06/14 07:19:31;;;;;;;;;;;;;;;17.80;75.69;97343.41;18561655;32;19940;-55
2023/06/14 07:29:36;;;;;;;;;;;;;;;18.28;72.19;97342.31;18546800;32;20016;-56
2023/06/14 07:39:40;;;;;;;;;;;;;;;18.71;65.03;97340.47;18560714;32;20305;-54
2023/06/14 07:49:43;;;;;;;;;;;;;;;19.10;60.14;97351.38;18560263;31;20005;-55
2023/06/14 07:59:46;;;;;;;;;;;;;;;19.61;57.71;97354.00;18560368;32;20025;-55
2023/06/14 08:09:49;;;;;;;;;;;;;;;19.95;56.74;97352.91;18545894;32;19957;-55
2023/06/14 08:19:57;;;;;;;;;;;;;;;20.33;52.08;97350.22;18568171;32;19994;-55
2023/06/14 08:30:00;;;;;;;;;;;;;;;20.78;48.75;97354.81;18571491;32;19969;-55
2023/06/14 08:40:07;;;;;;;;;;;;;;;21.28;49.67;97366.50;18570515;31;19945;-55
2023/06/14 08:50:10;;;;;;;;;;;;;;;21.58;50.36;97364.25;18570535;32;19964;-55
2023/06/14 09:00:30;;;;;;;;;;;;;;;21.91;48.91;97360.44;18557982;32;20290;-54
2023/06/14 09:10:40;;;;;;;;;;;;;;;22.20;48.31;97372.22;18556307;32;19974;-54
2023/06/14 09:20:48;;;;;;;;;;;;;;;22.65;47.37;97376.50;18541667;32;19988;-55
2023/06/14 09:30:51;;;;;;;;;;;;;;;23.01;42.71;97373.78;18567895;32;19996;-55
2023/06/14 09:40:58;;;;;;;;;;;;;;;23.34;41.60;97372.53;18553065;32;20048;-54
2023/06/14 09:51:01;;;;;;;;;;;;;;;23.68;40.59;97370.87;18566707;32;19994;-55
2023/06/14 10:01:09;;;;;;;;;;;;;;;23.96;41.69;97383.66;18566441;32;19990;-55
2023/06/14 11:26:04;;;;;;;;;;;;;;;24.33;41.28;97377.59;18565730;32;19960;-55
2023/06/14 11:36:08;;;;;;;;;;;;;;;24.33;41.28;97377.59;18501824;31;19988;-55
2023/06/14 11:46:21;;;;;;;;;;;;;;;27.57;36.80;97324.06;18546611;32;19969;-56
2023/06/14 11:56:26;;;;;;;;;;;;;;;28.28;35.37;97321.84;18572897;32;19956;-54
2023/06/14 12:06:35;;;;;;;;;;;;;;;28.40;31.17;97327.00;18573284;32;19965;-55
2023/06/14 12:16:40;;;;;;;;;;;;;;;28.56;29.84;97321.84;18572688;32;19976;-53
2023/06/14 12:26:44;;;;;;;;;;;;;;;29.31;35.18;97313.75;18545048;32;19967;-57
2023/06/14 12:36:48;;;;;;;;;;;;;;;29.38;31.28;97320.09;18571094;31;19952;-57
2023/06/14 12:46:53;;;;;;;;;;;;;;;29.56;30.85;97316.44;18570672;32;20303;-57
2023/06/14 12:56:56;;;;;;;;;;;;;;;29.93;31.91;97303.94;18569960;32;19944;-57
2023/06/14 13:06:59;;;;;;;;;;;;;;;30.41;27.84;97305.16;18569083;32;19972;-57
2023/06/14 13:17:03;;;;;;;;;;;;;;;30.92;31.10;97316.66;18569079;32;20329;-57
2023/06/14 13:27:06;;;;;;;;;;;;;;;31.20;31.56;97309.19;18568349;32;20065;-55
2023/06/14 13:37:10;;;;;;;;;;;;;;;31.32;29.18;97305.06;18553526;31;19952;-58
2023/06/14 13:47:13;;;;;;;;;;;;;;;31.44;29.10;97312.91;18553279;32;19960;-58
2023/06/14 13:57:16;;;;;;;;;;;;;;;32.33;27.38;97310.06;18566438;32;19952;-58
2023/06/14 14:07:20;;;;;;;;;;;;;;;32.01;27.42;97308.53;18551301;31;19949;-57
2023/06/14 14:17:23;;;;;;;;;;;;;;;32.52;28.86;97310.56;18551055;32;19956;-58
2023/06/14 14:27:27;;;;;;;;;;;;;;;33.02;24.43;97301.28;18564738;32;19975;-58
2023/06/14 14:37:30;;;;;;;;;;;;;;;33.20;27.05;97300.12;18563655;31;19949;-56
2023/06/14 14:47:33;;;;;;;;;;;;;;;33.04;28.42;97296.03;18536271;32;19963;-56
2023/06/14 14:57:37;;;;;;;;;;;;;;;32.66;26.55;97295.50;18548227;32;19949;-57
2023/06/14 15:07:40;;;;;;;;;;;;;;;31.19;29.41;97302.81;18562129;32;19957;-58
2023/06/14 15:17:44;;;;;;;;;;;;;;;30.02;28.60;97295.09;18562007;32;20297;-56
2023/06/14 15:27:48;;;;;;;;;;;;;;;29.01;29.61;97298.31;18546780;32;20436;-56
2023/06/14 15:37:51;;;;;;;;;;;;;;;28.38;29.33;97288.47;18560544;31;19970;-55
2023/06/14 15:47:55;;;;;;;;;;;;;;;27.88;28.53;97282.88;18560756;32;19967;-53
2023/06/14 15:58:00;;;;;;;;;;;;;;;27.63;30.66;97294.72;18560727;32;19957;-56
2023/06/14 16:08:03;;;;;;;;;;;;;;;27.12;30.22;97284.59;18546192;32;19972;-55
2023/06/14 16:18:07;;;;;;;;;;;;;;;26.64;31.41;97275.22;18559882;32;20238;-52
2023/06/14 16:28:14;;;;;;;;;;;;;;;26.61;31.16;97289.81;18559801;32;20008;-51
2023/06/14 16:38:17;;;;;;;;;;;;;;;26.59;31.56;97283.88;18563835;31;19968;-55
2023/06/14 16:48:21;;;;;;;;;;;;;;;27.72;29.62;97302.66;18571014;32;19971;-56
2023/06/14 16:58:25;;;;;;;;;;;;;;;26.44;31.74;97293.28;18556280;31;19949;-57
2023/06/14 17:08:28;;;;;;;;;;;;;;;26.01;33.84;97310.31;18569685;32;20007;-57
2023/06/14 17:18:35;;;;;;;;;;;;;;;25.77;32.70;97311.66;18568843;32;19949;-53
2023/06/14 17:28:38;;;;;;;;;;;;;;;25.50;33.20;97325.59;18568574;32;19956;-54
2023/06/14 17:38:41;;;;;;;;;;;;;;;25.25;33.61;97337.12;18567395;31;19993;-55
2023/06/14 17:48:49;;;;;;;;;;;;;;;25.11;33.82;97354.34;18566981;32;20047;-56
2023/06/14 17:58:55;;;;;;;;;;;;;;;25.09;34.38;97361.41;18566723;32;19971;-55
2023/06/14 18:08:59;;;;;;;;;;;;;;;26.76;32.04;97381.47;18566041;32;19965;-56
2023/06/14 18:19:03;;;;;;;;;;;;;;;29.57;29.33;97407.16;18550928;32;20385;-56
2023/06/14 18:29:06;;;;;;;;;;;;;;;27.38;31.61;97400.94;18564588;32;19971;-55
2023/06/14 18:39:09;;;;;;;;;;;;;;;25.10;33.82;97408.06;18549641;31;19999;-54
2023/06/14 18:49:13;;;;;;;;;;;;;;;24.22;34.88;97409.78;18548979;32;19975;-52
2023/06/14 18:59:15;;;;;;;;;;;;;;;23.80;35.71;97410.50;18562787;32;19953;-50
2023/06/14 19:09:19;;;;;;;;;;;;;;;23.21;37.06;97416.00;18562406;32;20005;-51
2023/06/14 19:19:23;;;;;;;;;;;;;;;22.94;38.69;97429.53;18561931;32;19960;-51
2023/06/14 19:29:26;;;;;;;;;;;;;;;22.58;39.52;97445.19;18561343;32;19956;-54
2023/06/14 19:39:29;;;;;;;;;;;;;;;22.28;40.13;97445.59;18560980;31;19988;-51
2023/06/14 19:49:32;;;;;;;;;;;;;;;21.94;39.92;97464.34;18560917;32;19957;-51
2023/06/14 19:59:35;;;;;;;;;;;;;;;21.80;40.89;97475.75;18560487;32;19995;-52
2023/06/14 20:09:39;;;;;;;;;;;;;;;21.51;41.33;97493.31;18562297;32;19993;-50
2023/06/14 20:19:48;;;;;;;;;;;;;;;21.36;42.53;97496.78;18572752;32;19944;-51
2023/06/14 20:29:52;;;;;;;;;;;;;;;21.27;42.17;97511.44;18571856;32;19952;-49
2023/06/14 20:40:05;;;;;;;;;;;;;;;21.21;41.97;97521.06;18570794;32;19994;-49
2023/06/14 20:50:11;;;;;;;;;;;;;;;20.93;43.49;97529.19;18570784;32;19960;-51
2023/06/14 21:00:15;;;;;;;;;;;;;;;20.56;46.27;97527.12;18570317;32;19960;-51
2023/06/14 21:10:20;;;;;;;;;;;;;;;20.21;50.42;97523.94;18569413;32;19969;-53
2023/06/14 21:20:23;;;;;;;;;;;;;;;19.70;58.62;97524.78;18568376;32;19961;-54
2023/06/14 21:30:33;;;;;;;;;;;;;;;19.29;66.28;97524.41;18568381;31;19953;-51
2023/06/14 21:40:36;;;;;;;;;;;;;;;18.83;74.70;97530.69;18567438;32;20277;-51
2023/06/14 21:50:39;;;;;;;;;;;;;;;18.33;77.97;97529.38;18567294;32;20000;-53
2023/06/14 22:00:41;;;;;;;;;;;;;;;17.89;79.56;97534.84;18566361;32;19983;-55
2023/06/14 22:10:45;;;;;;;;;;;;;;;17.49;82.27;97549.44;18565903;32;19944;-53
2023/06/14 22:20:48;;;;;;;;;;;;;;;17.17;88.14;97548.72;18565340;32;19953;-54
2023/06/14 22:30:57;;;;;;;;;;;;;;;16.83;88.62;97561.06;18564322;31;19961;-55
2023/06/14 22:41:07;;;;;;;;;;;;;;;16.52;93.65;97561.06;18563131;32;19957;-55
2023/06/14 22:51:13;;;;;;;;;;;;;;;16.21;96.24;97559.88;18563471;32;19975;-53
2023/06/14 23:01:17;;;;;;;;;;;;;;;15.95;99.22;97569.75;18563092;32;19964;-54
2023/06/14 23:11:21;;;;;;;;;;;;;;;15.63;100.00;97563.34;18562230;32;19975;-54
2023/06/14 23:21:24;;;;;;;;;;;;;;;15.31;100.00;97556.94;18561538;31;19960;-53
2023/06/14 23:31:27;;;;;;;;;;;;;;;15.03;100.00;97552.31;18561315;32;19967;-53
2023/06/14 23:41:33;;;;;;;;;;;;;;;14.77;100.00;97553.87;18560661;32;19980;-54
2023/06/14 23:51:37;;;;;;;;;;;;;;;14.54;100.00;97562.69;18572328;32;19940;-51
